createdAt,value
2022-12-29T00:00:09.606Z,12.31
2022-12-29T00:02:57.614Z,11.36
2022-12-29T00:05:25.683Z,10.81
2022-12-29T00:07:53.557Z,10.71
2022-12-29T00:10:21.615Z,12.29
2022-12-29T00:13:09.760Z,13.23
2022-12-29T00:15:41.094Z,12.25
2022-12-29T00:18:09.491Z,11.43
2022-12-29T00:20:57.066Z,10.87
2022-12-29T00:23:44.134Z,10.43
2022-12-29T00:26:35.047Z,10.75
2022-12-29T00:29:21.961Z,12.83
2022-12-29T00:32:08.677Z,13.25
2022-12-29T00:34:55.389Z,12.14
2022-12-29T00:37:43.397Z,11.32
2022-12-29T00:40:29.824Z,10.76
2022-12-29T00:43:16.238Z,10.38
2022-12-29T00:45:45.419Z,11.53
2022-12-29T00:48:14.025Z,12.88
2022-12-29T00:50:42.081Z,12.21
2022-12-29T00:53:09.973Z,11.36
2022-12-29T00:55:39.424Z,10.76
2022-12-29T00:58:07.388Z,10.33
2022-12-29T01:00:35.389Z,10.64
2022-12-29T01:03:04.189Z,12.37
2022-12-29T01:05:32.727Z,12.44
2022-12-29T01:08:00.750Z,11.54
2022-12-29T01:10:28.813Z,10.87
2022-12-29T01:12:56.722Z,10.40
2022-12-29T01:15:24.613Z,10.55
2022-12-29T01:17:52.648Z,12.25
2022-12-29T01:20:20.686Z,13.12
2022-12-29T01:22:48.765Z,12.27
2022-12-29T01:25:16.868Z,11.45
2022-12-29T01:27:46.335Z,10.88
2022-12-29T01:30:14.577Z,10.49
2022-12-29T01:32:42.607Z,10.31
2022-12-29T01:35:11.871Z,11.66
2022-12-29T01:37:39.745Z,12.93
2022-12-29T01:40:08.231Z,12.22
2022-12-29T01:42:36.122Z,11.41
2022-12-29T01:45:15.477Z,10.85
2022-12-29T01:47:54.813Z,10.44
2022-12-29T01:50:34.062Z,10.14
2022-12-29T01:53:18.260Z,11.31
2022-12-29T01:56:09.363Z,12.67
2022-12-29T01:58:41.198Z,11.84
2022-12-29T02:01:09.623Z,11.10
2022-12-29T02:03:37.970Z,10.61
2022-12-29T02:06:17.551Z,10.35
2022-12-29T02:08:48.483Z,11.78
2022-12-29T02:11:17.465Z,12.93
2022-12-29T02:13:45.381Z,12.16
2022-12-29T02:16:20.280Z,11.37
2022-12-29T02:19:22.386Z,10.80
2022-12-29T02:22:42.891Z,10.35
2022-12-29T02:25:37.413Z,11.29
2022-12-29T02:28:22.297Z,12.74
2022-12-29T02:31:04.312Z,11.92
2022-12-29T02:34:15.693Z,11.14
2022-12-29T02:37:05.963Z,10.55
2022-12-29T02:39:51.234Z,10.40
2022-12-29T02:42:37.213Z,12.14
2022-12-29T02:45:29.285Z,12.95
2022-12-29T02:48:47.010Z,11.93
2022-12-29T02:51:22.428Z,11.04
2022-12-29T02:54:10.385Z,10.60
2022-12-29T02:56:38.354Z,11.22
2022-12-29T02:59:06.446Z,12.90
2022-12-29T03:02:19.412Z,12.65
2022-12-29T03:05:08.701Z,11.57
2022-12-29T03:08:00.851Z,10.93
2022-12-29T03:10:46.631Z,11.61
2022-12-29T03:14:00.375Z,13.34
2022-12-29T03:16:59.855Z,12.53
2022-12-29T03:19:37.941Z,11.56
2022-12-29T03:22:28.165Z,11.14
2022-12-29T03:25:11.438Z,12.63
2022-12-29T03:27:50.851Z,13.70
2022-12-29T03:30:19.538Z,12.67
2022-12-29T03:32:59.076Z,11.81
2022-12-29T03:35:31.536Z,11.20
2022-12-29T03:38:13.609Z,11.92
2022-12-29T03:40:45.375Z,13.67
2022-12-29T03:43:13.662Z,13.36
2022-12-29T03:45:42.320Z,12.34
2022-12-29T03:48:10.423Z,11.60
2022-12-29T03:50:38.867Z,11.51
2022-12-29T03:53:06.806Z,13.04
2022-12-29T03:55:34.962Z,13.85
2022-12-29T03:58:02.921Z,12.91
2022-12-29T04:00:31.046Z,12.01
2022-12-29T04:02:59.200Z,11.39
2022-12-29T04:05:27.618Z,11.65
2022-12-29T04:07:55.644Z,13.32
2022-12-29T04:10:23.672Z,13.47
2022-12-29T04:12:51.647Z,12.48
2022-12-29T04:15:19.661Z,11.72
2022-12-29T04:17:47.534Z,11.16
2022-12-29T04:20:33.974Z,11.10
2022-12-29T04:23:06.671Z,12.84
2022-12-29T04:25:35.428Z,13.17
2022-12-29T04:28:04.125Z,12.23
2022-12-29T04:30:32.119Z,11.50
2022-12-29T04:33:00.080Z,10.98
2022-12-29T04:35:28.233Z,10.63
2022-12-29T04:37:56.132Z,11.57
2022-12-29T04:40:24.872Z,12.90
2022-12-29T04:42:52.883Z,12.30
2022-12-29T04:45:20.806Z,11.51
2022-12-29T04:47:48.802Z,10.95
2022-12-29T04:50:16.918Z,10.56
2022-12-29T04:52:45.909Z,10.99
2022-12-29T04:55:13.938Z,12.64
2022-12-29T04:57:42.753Z,12.49
2022-12-29T05:00:11.984Z,11.66
2022-12-29T05:02:40.180Z,11.05
2022-12-29T05:05:08.772Z,10.65
2022-12-29T05:07:36.956Z,10.78
2022-12-29T05:10:06.036Z,12.46
2022-12-29T05:12:35.400Z,12.81
2022-12-29T05:15:04.374Z,11.95
2022-12-29T05:17:32.406Z,11.29
2022-12-29T05:20:00.617Z,10.84
2022-12-29T05:22:28.670Z,10.52
2022-12-29T05:24:56.751Z,10.73
2022-12-29T05:27:24.659Z,12.40
2022-12-29T05:29:52.651Z,12.45
2022-12-29T05:32:20.703Z,11.65
2022-12-29T05:34:48.588Z,11.05
2022-12-29T05:37:16.619Z,10.65
2022-12-29T05:39:46.364Z,10.77
2022-12-29T05:42:14.393Z,12.42
2022-12-29T05:44:42.423Z,12.60
2022-12-29T05:47:10.390Z,11.80
2022-12-29T05:49:38.381Z,11.20
2022-12-29T05:52:06.346Z,10.78
2022-12-29T05:54:34.335Z,10.56
2022-12-29T05:57:02.290Z,11.77
2022-12-29T05:59:30.219Z,13.02
2022-12-29T06:01:58.526Z,12.37
2022-12-29T06:04:26.570Z,11.63
2022-12-29T06:06:54.598Z,11.11
2022-12-29T06:09:22.478Z,10.77
2022-12-29T06:11:50.430Z,11.27
2022-12-29T06:14:18.607Z,12.99
2022-12-29T06:16:46.647Z,13.03
2022-12-29T06:19:15.138Z,12.17
2022-12-29T06:21:43.093Z,11.56
2022-12-29T06:24:12.137Z,11.14
2022-12-29T06:26:41.280Z,10.83
2022-12-29T06:29:09.431Z,11.04
2022-12-29T06:31:37.403Z,12.80
2022-12-29T06:34:08.543Z,13.30
2022-12-29T06:36:36.679Z,12.43
2022-12-29T06:39:04.655Z,11.76
2022-12-29T06:41:32.813Z,11.29
2022-12-29T06:44:01.156Z,10.96
2022-12-29T06:46:29.098Z,10.77
2022-12-29T06:48:57.287Z,11.93
2022-12-29T06:51:25.256Z,13.27
2022-12-29T06:53:53.150Z,12.68
2022-12-29T06:56:21.116Z,11.93
2022-12-29T06:58:49.143Z,11.42
2022-12-29T07:01:17.420Z,11.06
2022-12-29T07:03:45.484Z,10.80
2022-12-29T07:06:13.543Z,11.46
2022-12-29T07:08:42.129Z,13.07
2022-12-29T07:11:10.272Z,12.76
2022-12-29T07:13:38.325Z,12.02
2022-12-29T07:16:10.575Z,11.49
2022-12-29T07:18:38.669Z,11.11
2022-12-29T07:21:06.683Z,10.83
2022-12-29T07:23:35.326Z,11.00
2022-12-29T07:26:08.874Z,12.74
2022-12-29T07:28:39.048Z,13.26
2022-12-29T07:31:07.316Z,12.40
2022-12-29T07:33:35.292Z,11.75
2022-12-29T07:36:03.563Z,11.32
2022-12-29T07:38:31.437Z,11.04
2022-12-29T07:40:59.951Z,12.06
2022-12-29T07:43:28.547Z,13.62
2022-12-29T07:45:56.521Z,13.21
2022-12-29T07:48:24.397Z,12.42
2022-12-29T07:50:53.621Z,11.88
2022-12-29T07:53:21.461Z,11.52
2022-12-29T07:55:49.326Z,11.23
2022-12-29T07:58:17.173Z,11.04
2022-12-29T08:00:45.153Z,12.00
2022-12-29T08:03:13.082Z,13.43
2022-12-29T08:05:40.979Z,12.95
2022-12-29T08:08:08.893Z,12.22
2022-12-29T08:10:36.793Z,11.74
2022-12-29T08:13:04.632Z,11.39
2022-12-29T08:15:32.859Z,11.12
2022-12-29T08:18:00.831Z,11.22
2022-12-29T08:20:28.760Z,12.87
2022-12-29T08:22:56.669Z,13.93
2022-12-29T08:25:24.524Z,13.20
2022-12-29T08:27:52.559Z,12.43
2022-12-29T08:30:20.558Z,11.91
2022-12-29T08:32:48.764Z,11.55
2022-12-29T08:35:17.095Z,11.26
2022-12-29T08:37:45.222Z,11.07
2022-12-29T08:40:13.377Z,12.04
2022-12-29T08:42:41.487Z,13.44
2022-12-29T08:45:10.207Z,12.89
2022-12-29T08:47:38.336Z,12.18
2022-12-29T08:50:07.170Z,11.71
2022-12-29T08:52:35.110Z,11.37
2022-12-29T08:55:03.117Z,11.26
2022-12-29T08:57:31.145Z,12.68
2022-12-29T08:59:59.045Z,13.93
2022-12-29T09:02:27.329Z,13.26
2022-12-29T09:04:55.920Z,12.49
2022-12-29T09:07:24.773Z,11.98
2022-12-29T09:09:52.640Z,11.63
2022-12-29T09:12:20.671Z,11.37
2022-12-29T09:14:50.129Z,11.84
2022-12-29T09:17:41.634Z,13.60
2022-12-29T09:20:10.862Z,13.60
2022-12-29T09:22:41.200Z,12.79
2022-12-29T09:25:11.172Z,12.22
2022-12-29T09:27:39.910Z,11.85
2022-12-29T09:30:11.787Z,11.61
2022-12-29T09:32:44.876Z,11.83
2022-12-29T09:35:15.604Z,13.69
2022-12-29T09:37:49.789Z,14.51
2022-12-29T09:40:34.543Z,13.65
2022-12-29T09:43:25.799Z,12.87
2022-12-29T09:46:16.825Z,12.38
2022-12-29T09:48:49.965Z,12.06
2022-12-29T09:51:23.504Z,11.84
2022-12-29T09:54:03.818Z,11.66
2022-12-29T09:56:34.114Z,12.08
2022-12-29T09:59:19.868Z,13.85
2022-12-29T10:02:07.603Z,13.89
2022-12-29T10:04:36.250Z,13.14
2022-12-29T10:07:30.772Z,12.72
2022-12-29T10:10:13.593Z,12.46
2022-12-29T10:12:53.658Z,12.31
2022-12-29T10:15:39.833Z,12.22
2022-12-29T10:18:50.991Z,12.15
2022-12-29T10:21:49.372Z,12.07
2022-12-29T10:24:18.224Z,11.96
2022-12-29T10:26:47.113Z,11.87
2022-12-29T10:29:15.742Z,11.82
2022-12-29T10:32:00.299Z,13.02
2022-12-29T10:34:40.585Z,14.49
2022-12-29T10:37:34.495Z,13.96
2022-12-29T10:40:35.104Z,13.39
2022-12-29T10:43:03.268Z,13.06
2022-12-29T10:45:32.158Z,12.91
2022-12-29T10:48:10.574Z,12.84
2022-12-29T10:50:43.952Z,12.85
2022-12-29T10:53:20.531Z,12.92
2022-12-29T10:55:48.730Z,13.04
2022-12-29T10:58:17.189Z,13.19
2022-12-29T11:00:54.650Z,13.40
2022-12-29T11:04:03.925Z,13.68
2022-12-29T11:06:33.133Z,14.09
2022-12-29T11:09:16.663Z,14.41
2022-12-29T11:11:44.896Z,14.73
2022-12-29T11:14:28.823Z,14.99
2022-12-29T11:17:03.757Z,15.29
2022-12-29T11:19:40.519Z,15.56
2022-12-29T11:22:29.637Z,15.81
2022-12-29T11:25:13.146Z,16.05
2022-12-29T11:28:03.231Z,16.27
2022-12-29T11:30:33.168Z,16.51
2022-12-29T11:33:04.178Z,16.71
2022-12-29T11:35:45.073Z,16.87
2022-12-29T11:38:27.487Z,17.00
2022-12-29T11:40:55.470Z,17.06
2022-12-29T11:43:35.251Z,17.07
2022-12-29T11:46:04.773Z,17.04
2022-12-29T11:48:42.761Z,17.01
2022-12-29T11:51:12.418Z,17.05
2022-12-29T11:53:46.831Z,17.21
2022-12-29T11:56:23.697Z,17.38
2022-12-29T11:58:51.957Z,17.49
2022-12-29T12:01:37.455Z,17.61
2022-12-29T12:04:16.671Z,17.81
2022-12-29T12:07:21.769Z,18.03
2022-12-29T12:10:04.920Z,18.26
2022-12-29T12:12:53.073Z,18.38
2022-12-29T12:15:43.612Z,18.36
2022-12-29T12:18:24.946Z,18.26
2022-12-29T12:20:58.815Z,18.17
2022-12-29T12:23:33.901Z,18.08
2022-12-29T12:26:22.726Z,17.99
2022-12-29T12:29:13.467Z,17.89
2022-12-29T12:32:01.132Z,17.75
2022-12-29T12:34:37.680Z,17.64
2022-12-29T12:37:20.922Z,17.52
2022-12-29T12:40:19.081Z,17.41
2022-12-29T12:43:10.126Z,17.26
2022-12-29T12:45:53.800Z,17.05
2022-12-29T12:48:39.796Z,16.84
2022-12-29T12:51:16.736Z,16.67
2022-12-29T12:54:22.867Z,16.55
2022-12-29T12:57:06.374Z,16.43
2022-12-29T13:00:09.078Z,16.33
2022-12-29T13:03:20.847Z,16.25
2022-12-29T13:05:57.510Z,16.17
2022-12-29T13:08:40.291Z,16.06
2022-12-29T13:11:50.854Z,15.90
2022-12-29T13:14:56.085Z,15.66
2022-12-29T13:17:52.711Z,15.46
2022-12-29T13:20:32.240Z,15.28
2022-12-29T13:23:27.345Z,15.11
2022-12-29T13:26:22.203Z,14.92
2022-12-29T13:29:37.529Z,14.72
2022-12-29T13:32:36.369Z,14.54
2022-12-29T13:35:10.345Z,14.36
2022-12-29T13:38:04.969Z,14.18
2022-12-29T13:40:37.171Z,14.03
2022-12-29T13:43:05.848Z,13.88
2022-12-29T13:45:35.481Z,13.75
2022-12-29T13:48:22.759Z,13.62
2022-12-29T13:50:58.649Z,13.49
2022-12-29T13:53:56.306Z,13.37
2022-12-29T13:56:47.415Z,13.25
2022-12-29T13:59:19.825Z,13.16
2022-12-29T14:02:05.146Z,13.08
2022-12-29T14:04:36.064Z,13.00
2022-12-29T14:07:16.430Z,12.93
2022-12-29T14:09:58.035Z,12.85
2022-12-29T14:12:39.116Z,12.77
2022-12-29T14:15:10.075Z,12.70
2022-12-29T14:17:40.512Z,12.63
2022-12-29T14:20:29.150Z,12.56
2022-12-29T14:23:11.801Z,12.48
2022-12-29T14:26:05.786Z,12.41
2022-12-29T14:28:50.133Z,12.40
2022-12-29T14:31:18.051Z,13.93
2022-12-29T14:34:07.558Z,15.15
2022-12-29T14:36:40.201Z,14.48
2022-12-29T14:39:37.868Z,13.88
2022-12-29T14:42:11.887Z,13.44
2022-12-29T14:45:02.174Z,13.20
2022-12-29T14:47:37.655Z,12.99
2022-12-29T14:50:11.511Z,12.84
2022-12-29T14:53:03.485Z,12.69
2022-12-29T14:55:55.610Z,12.57
2022-12-29T14:58:31.222Z,12.44
2022-12-29T15:01:00.634Z,12.34
2022-12-29T15:03:51.202Z,12.24
2022-12-29T15:06:23.257Z,12.14
2022-12-29T15:09:15.633Z,12.52
2022-12-29T15:11:52.615Z,14.49
2022-12-29T15:14:33.642Z,14.43
2022-12-29T15:17:02.605Z,13.68
2022-12-29T15:19:30.676Z,13.20
2022-12-29T15:21:58.748Z,12.88
2022-12-29T15:24:26.769Z,12.66
2022-12-29T15:26:56.156Z,12.48
2022-12-29T15:29:40.695Z,12.32
2022-12-29T15:32:19.490Z,12.16
2022-12-29T15:34:51.517Z,12.03
2022-12-29T15:37:29.876Z,11.90
2022-12-29T15:39:57.939Z,12.06
2022-12-29T15:42:44.436Z,13.69
2022-12-29T15:45:13.652Z,14.10
2022-12-29T15:47:44.097Z,13.42
2022-12-29T15:50:29.031Z,12.92
2022-12-29T15:52:57.732Z,12.56
2022-12-29T15:55:35.540Z,12.33
2022-12-29T15:58:16.608Z,12.15
2022-12-29T16:00:54.152Z,11.99
2022-12-29T16:03:24.155Z,11.86
2022-12-29T16:06:29.556Z,11.75
2022-12-29T16:09:15.276Z,12.23
2022-12-29T16:11:56.279Z,14.08
2022-12-29T16:14:34.241Z,13.81
2022-12-29T16:17:07.649Z,13.15
2022-12-29T16:19:41.725Z,12.71
2022-12-29T16:22:29.921Z,12.43
2022-12-29T16:25:05.587Z,12.21
2022-12-29T16:27:42.461Z,12.05
2022-12-29T16:30:34.085Z,11.91
2022-12-29T16:33:06.103Z,11.78
2022-12-29T16:35:47.678Z,11.69
2022-12-29T16:38:24.956Z,12.84
2022-12-29T16:40:56.998Z,14.27
2022-12-29T16:43:35.163Z,13.70
2022-12-29T16:46:03.253Z,13.04
2022-12-29T16:48:36.089Z,12.64
2022-12-29T16:51:19.995Z,12.35
2022-12-29T16:53:55.441Z,12.14
2022-12-29T16:56:29.851Z,11.97
2022-12-29T16:59:24.590Z,11.83
2022-12-29T17:01:52.776Z,11.76
2022-12-29T17:04:20.826Z,13.06
2022-12-29T17:06:48.939Z,14.36
2022-12-29T17:09:22.909Z,13.80
2022-12-29T17:12:05.366Z,13.11
2022-12-29T17:14:54.359Z,12.62
2022-12-29T17:17:35.886Z,12.31
2022-12-29T17:20:28.313Z,12.08
2022-12-29T17:22:57.392Z,11.87
2022-12-29T17:25:37.605Z,11.72
2022-12-29T17:28:15.917Z,12.56
2022-12-29T17:30:46.130Z,14.04
2022-12-29T17:33:18.296Z,13.54
2022-12-29T17:35:50.430Z,12.88
2022-12-29T17:38:33.033Z,12.43
2022-12-29T17:41:01.256Z,12.12
2022-12-29T17:43:36.334Z,11.90
2022-12-29T17:46:08.148Z,11.81
2022-12-29T17:48:36.497Z,13.27
2022-12-29T17:51:05.550Z,14.47
2022-12-29T17:53:33.744Z,13.77
2022-12-29T17:56:01.946Z,13.05
2022-12-29T17:58:31.886Z,12.56
2022-12-29T18:01:02.242Z,12.20
2022-12-29T18:03:36.806Z,11.93
2022-12-29T18:06:09.861Z,11.69
2022-12-29T18:08:39.038Z,11.66
2022-12-29T18:11:31.849Z,13.19
2022-12-29T18:13:59.923Z,13.68
2022-12-29T18:16:29.297Z,12.95
2022-12-29T18:18:57.336Z,12.40
2022-12-29T18:21:25.562Z,12.03
2022-12-29T18:23:53.748Z,11.77
2022-12-29T18:26:31.706Z,11.57
2022-12-29T18:29:00.005Z,11.84
2022-12-29T18:31:31.881Z,13.67
2022-12-29T18:34:11.289Z,14.03
2022-12-29T18:36:39.413Z,13.20
2022-12-29T18:39:07.596Z,12.62
2022-12-29T18:41:35.545Z,12.25
2022-12-29T18:44:03.723Z,11.99
2022-12-29T18:46:32.227Z,11.77
2022-12-29T18:49:00.287Z,11.61
2022-12-29T18:51:28.305Z,11.93
2022-12-29T18:54:01.339Z,13.71
2022-12-29T18:56:32.565Z,13.82
2022-12-29T18:59:00.760Z,13.10
2022-12-29T19:01:29.473Z,12.59
2022-12-29T19:03:57.708Z,12.24
2022-12-29T19:06:25.911Z,12.00
2022-12-29T19:08:54.069Z,11.82
2022-12-29T19:11:22.551Z,11.66
2022-12-29T19:13:50.656Z,12.03
2022-12-29T19:16:21.975Z,13.90
2022-12-29T19:19:07.764Z,14.22
2022-12-29T19:21:38.565Z,13.33
2022-12-29T19:24:06.978Z,12.79
2022-12-29T19:26:38.756Z,12.43
2022-12-29T19:29:17.691Z,12.18
2022-12-29T19:31:45.940Z,11.97
2022-12-29T19:34:16.031Z,11.80
2022-12-29T19:36:45.392Z,12.12
2022-12-29T19:39:13.943Z,14.01
2022-12-29T19:41:42.025Z,15.00
2022-12-29T19:44:09.963Z,14.19
2022-12-29T19:46:38.040Z,13.43
2022-12-29T19:49:06.203Z,12.94
2022-12-29T19:51:34.222Z,12.59
2022-12-29T19:54:02.401Z,12.32
2022-12-29T19:56:31.285Z,12.10
2022-12-29T19:58:59.315Z,11.90
2022-12-29T20:01:27.892Z,11.72
2022-12-29T20:03:56.188Z,12.06
2022-12-29T20:06:24.296Z,13.96
2022-12-29T20:08:52.931Z,14.50
2022-12-29T20:11:23.693Z,13.63
2022-12-29T20:13:51.794Z,12.94
2022-12-29T20:16:20.638Z,12.47
2022-12-29T20:18:49.185Z,12.13
2022-12-29T20:21:23.584Z,11.85
2022-12-29T20:23:53.814Z,11.61
2022-12-29T20:26:27.440Z,11.79
2022-12-29T20:28:58.177Z,13.64
2022-12-29T20:31:34.422Z,14.61
2022-12-29T20:34:12.330Z,13.71
2022-12-29T20:36:43.844Z,12.86
2022-12-29T20:39:18.724Z,12.31
2022-12-29T20:41:47.574Z,11.90
2022-12-29T20:44:15.569Z,11.59
2022-12-29T20:46:44.598Z,11.68
2022-12-29T20:49:12.724Z,13.38
2022-12-29T20:54:37.081Z,13.38
2022-12-29T20:57:07.442Z,12.55
2022-12-29T20:59:35.487Z,12.02
2022-12-29T21:02:03.694Z,11.66
2022-12-29T21:04:49.998Z,12.31
2022-12-29T21:07:20.398Z,14.21
2022-12-29T21:09:48.508Z,13.84
2022-12-29T21:12:16.635Z,12.98
2022-12-29T21:14:45.907Z,12.38
2022-12-29T21:17:14.100Z,11.97
2022-12-29T21:19:43.268Z,11.71
2022-12-29T21:22:11.588Z,12.81
2022-12-29T21:24:39.645Z,14.18
2022-12-29T21:27:07.671Z,13.58
2022-12-29T21:29:35.724Z,12.83
2022-12-29T21:32:07.066Z,12.30
2022-12-29T21:34:35.686Z,11.95
2022-12-29T21:37:03.878Z,11.86
2022-12-29T21:39:32.131Z,13.34
2022-12-29T21:42:01.707Z,14.38
2022-12-29T21:45:16.661Z,13.63
2022-12-29T21:48:07.537Z,12.72
2022-12-29T21:51:02.134Z,12.22
2022-12-29T21:53:38.403Z,11.87
2022-12-29T21:56:22.587Z,11.69
2022-12-29T21:59:09.763Z,13.09
2022-12-29T22:02:00.730Z,14.44
2022-12-29T22:04:57.931Z,13.55
2022-12-29T22:11:11.640Z,12.12
2022-12-29T22:14:45.505Z,11.77
2022-12-29T22:17:00.828Z,12.39
2022-12-29T22:19:28.958Z,14.23
2022-12-29T22:22:06.715Z,14.07
2022-12-29T22:24:39.653Z,13.15
2022-12-29T22:27:09.093Z,12.52
2022-12-29T22:33:08.794Z,11.70
2022-12-29T22:36:27.563Z,12.11
2022-12-29T22:38:38.411Z,14.26
2022-12-29T22:41:51.380Z,14.04
2022-12-29T22:45:03.439Z,12.95
2022-12-29T22:47:59.687Z,12.25
2022-12-29T22:54:47.007Z,12.43
2022-12-29T22:59:01.965Z,14.54
2022-12-29T23:03:51.597Z,12.71
2022-12-29T23:07:22.986Z,12.17
2022-12-29T23:10:16.005Z,11.74
2022-12-29T23:13:18.351Z,12.90
2022-12-29T23:16:02.356Z,14.42
2022-12-29T23:18:54.823Z,13.59
2022-12-29T23:21:59.400Z,12.68
2022-12-29T23:24:34.390Z,12.14
2022-12-29T23:27:06.248Z,12.21
2022-12-29T23:29:41.172Z,13.97
2022-12-29T23:32:36.761Z,14.30
2022-12-29T23:35:11.927Z,13.33
2022-12-29T23:38:02.936Z,12.61
2022-12-29T23:40:34.252Z,12.12
2022-12-29T23:43:03.938Z,11.79
2022-12-29T23:45:50.520Z,12.81
2022-12-29T23:48:22.805Z,14.60
2022-12-29T23:50:55.857Z,14.08
2022-12-29T23:53:33.816Z,13.14
2022-12-29T23:56:04.613Z,12.46
2022-12-29T23:58:35.352Z,12.02
